Time;durP1;ratioP1;P1;durP2;ratioP2;P2;SDS_P1;SDS_P2;PMS_P1;PMS_P2;Temp;Humidity;BMP_temperature;BMP_pressure;BME280_temperature;BME280_humidity;BME280_pressure;Samples;Min_cycle;Max_cycle;Signal;HPM_P1;HPM_P2
2021/11/11 00:01:52;;;;;;;9.88;6.90;;;;;;;4.04;68.67;97399.67;1766801;81;21451;-81
2021/11/11 00:04:20;;;;;;;7.17;5.58;;;;;;;4.03;68.53;97400.14;1756456;81;21372;-82
2021/11/11 00:06:47;;;;;;;7.72;5.42;;;;;;;4.03;68.51;97392.89;1756720;82;21398;-81
2021/11/11 00:09:14;;;;;;;9.05;6.05;;;;;;;4.01;68.64;97396.06;1767131;81;20976;-81
2021/11/11 00:11:40;;;;;;;6.67;4.87;;;;;;;3.98;68.88;97403.54;1766747;81;20973;-81
2021/11/11 00:14:06;;;;;;;19.60;12.47;;;;;;;3.96;69.15;97411.84;1711878;82;20940;-81
2021/11/11 00:16:32;;;;;;;23.70;15.48;;;;;;;3.91;69.02;97406.23;1738793;82;20958;-82
2021/11/11 00:18:58;;;;;;;12.85;8.80;;;;;;;3.93;68.72;97416.41;1736391;83;20990;-81
2021/11/11 00:21:24;;;;;;;10.48;6.78;;;;;;;3.91;69.02;97410.09;1722992;83;20990;-81
2021/11/11 00:23:49;;;;;;;13.62;8.83;;;;;;;3.89;68.87;97408.08;1742424;81;20954;-81
2021/11/11 00:26:15;;;;;;;7.17;5.03;;;;;;;3.89;68.75;97410.65;1738786;82;21061;-81
2021/11/11 00:28:41;;;;;;;11.88;8.48;;;;;;;3.89;68.91;97408.89;1739112;82;21351;-82
2021/11/11 00:31:06;;;;;;;13.00;7.70;;;;;;;3.91;68.70;97403.66;1738686;82;20965;-82
2021/11/11 00:33:32;;;;;;;16.42;10.25;;;;;;;3.93;69.12;97409.97;1738690;82;21000;-81
2021/11/11 00:35:59;;;;;;;11.63;7.58;;;;;;;3.93;69.29;97401.80;1738717;82;21064;-81
2021/11/11 00:38:25;;;;;;;13.13;7.87;;;;;;;3.93;69.14;97405.65;1764163;81;20974;-81
2021/11/11 00:40:50;;;;;;;12.78;8.00;;;;;;;3.91;69.20;97402.37;1738942;82;21023;-81
2021/11/11 00:43:18;;;;;;;11.55;8.40;;;;;;;3.87;69.11;97395.34;1769156;81;20986;-80
2021/11/11 00:45:44;;;;;;;13.58;9.83;;;;;;;3.83;69.52;97394.41;1769395;80;21338;-80
2021/11/11 00:48:10;;;;;;;16.30;10.30;;;;;;;3.78;69.83;97396.05;1766680;80;20955;-80
2021/11/11 00:50:35;;;;;;;19.48;12.95;;;;;;;3.77;69.85;97403.41;1768580;81;21085;-80
2021/11/11 00:53:01;;;;;;;22.05;13.53;;;;;;;3.75;69.90;97401.42;1769418;81;21467;-80
2021/11/11 00:55:27;;;;;;;19.57;13.45;;;;;;;3.76;69.96;97403.52;1769268;81;21049;-80
2021/11/11 00:57:53;;;;;;;17.40;10.48;;;;;;;3.77;69.97;97403.88;1769464;81;20955;-82
2021/11/11 01:00:20;;;;;;;19.80;12.33;;;;;;;3.78;69.96;97397.80;1769610;80;21381;-81
2021/11/11 01:02:47;;;;;;;32.13;18.27;;;;;;;3.81;69.83;97400.13;1782058;79;21078;-81
2021/11/11 01:05:13;;;;;;;25.15;15.40;;;;;;;3.82;70.15;97397.91;1798216;80;21082;-81
2021/11/11 01:07:39;;;;;;;22.40;14.50;;;;;;;3.85;70.36;97391.25;1793646;80;21404;-82
2021/11/11 01:10:11;;;;;;;22.22;14.87;;;;;;;3.83;70.16;97393.13;1798435;80;21027;-81
2021/11/11 01:12:37;;;;;;;23.77;14.23;;;;;;;3.83;70.54;97386.22;1798589;80;20991;-81
2021/11/11 01:15:05;;;;;;;24.47;14.58;;;;;;;3.81;70.47;97377.00;1798524;80;20920;-81
2021/11/11 01:17:31;;;;;;;24.67;15.85;;;;;;;3.77;70.60;97378.98;1798297;80;21349;-81
2021/11/11 01:19:57;;;;;;;19.60;13.78;;;;;;;3.72;70.64;97382.81;1775412;80;21337;-81
2021/11/11 01:22:23;;;;;;;23.40;15.55;;;;;;;3.69;70.67;97375.34;1792499;80;21044;-81
2021/11/11 01:24:49;;;;;;;18.32;12.88;;;;;;;3.69;70.80;97374.87;1795080;80;20960;-82
2021/11/11 01:27:14;;;;;;;21.85;15.05;;;;;;;3.70;70.90;97371.83;1793346;80;21029;-81
2021/11/11 01:29:40;;;;;;;24.55;14.70;;;;;;;3.71;70.99;97370.42;1793236;80;21049;-81
2021/11/11 01:32:07;;;;;;;26.35;15.98;;;;;;;3.72;71.17;97365.64;1793434;80;21009;-81
2021/11/11 01:34:32;;;;;;;28.15;17.32;;;;;;;3.71;71.19;97373.00;1793233;80;21024;-81
2021/11/11 01:36:58;;;;;;;20.48;13.93;;;;;;;3.71;71.35;97367.04;1771028;80;21016;-81
2021/11/11 01:39:24;;;;;;;26.97;18.52;;;;;;;3.70;71.42;97367.98;1793182;80;21307;-81
2021/11/11 01:41:50;;;;;;;23.60;17.07;;;;;;;3.69;71.70;97370.20;1793350;80;20984;-82
2021/11/11 01:44:16;;;;;;;30.30;17.55;;;;;;;3.69;71.70;97377.91;1785381;80;20999;-81
2021/11/11 01:46:42;;;;;;;26.15;15.95;;;;;;;3.71;71.78;97378.61;1749514;82;21044;-81
2021/11/11 01:49:08;;;;;;;27.20;17.30;;;;;;;3.72;71.76;97370.78;1780541;80;21036;-81
2021/11/11 01:51:34;;;;;;;24.30;17.52;;;;;;;3.73;71.76;97369.84;1749493;82;21043;-82
2021/11/11 01:54:00;;;;;;;28.17;17.98;;;;;;;3.79;71.84;97375.02;1780374;81;21024;-81
2021/11/11 01:56:26;;;;;;;31.35;18.80;;;;;;;3.85;71.80;97372.78;1759570;81;21365;-81
2021/11/11 01:58:51;;;;;;;22.98;15.65;;;;;;;3.86;71.60;97364.13;1780256;80;20956;-82
2021/11/11 02:01:18;;;;;;;20.10;13.40;;;;;;;3.88;71.74;97373.02;1758384;81;21051;-81
2021/11/11 02:03:45;;;;;;;22.02;13.85;;;;;;;3.85;71.78;97369.39;1781630;80;20988;-81
2021/11/11 02:06:12;;;;;;;18.70;13.48;;;;;;;3.79;71.78;97360.41;1782924;80;21047;-81
2021/11/11 02:08:38;;;;;;;17.95;13.98;;;;;;;3.73;71.86;97362.13;1726974;82;21068;-81
2021/11/11 02:11:05;;;;;;;21.90;13.95;;;;;;;3.67;71.98;97363.07;1780907;80;21009;-81
2021/11/11 02:13:31;;;;;;;20.20;14.25;;;;;;;3.64;71.92;97363.30;1749857;82;20979;-81
2021/11/11 02:15:56;;;;;;;20.02;13.68;;;;;;;3.60;71.96;97353.73;1780892;80;21365;-82
2021/11/11 02:18:22;;;;;;;19.27;13.50;;;;;;;3.61;72.04;97360.03;1750022;82;21051;-82
2021/11/11 02:20:48;;;;;;;17.85;13.30;;;;;;;3.63;72.06;97354.78;1780709;81;21020;-82
2021/11/11 02:23:16;;;;;;;16.73;12.15;;;;;;;3.64;72.03;97346.13;1755053;80;20971;-82
2021/11/11 02:25:43;;;;;;;16.20;11.43;;;;;;;3.63;72.18;97341.92;1789729;80;21066;-81
2021/11/11 02:28:14;;;;;;;17.87;11.43;;;;;;;3.60;72.29;97336.55;1758747;81;22110;-81
2021/11/11 02:30:42;;;;;;;18.20;11.57;;;;;;;3.61;72.41;97339.94;1789669;80;21330;-81
2021/11/11 02:33:10;;;;;;;16.00;10.58;;;;;;;3.59;72.46;97343.91;1758543;81;21046;-81
2021/11/11 02:35:36;;;;;;;16.17;11.25;;;;;;;3.58;72.52;97344.03;1789677;80;20968;-81
2021/11/11 02:38:03;;;;;;;19.30;12.45;;;;;;;3.56;72.49;97342.83;1758574;81;21425;-81
2021/11/11 02:40:28;;;;;;;12.60;9.08;;;;;;;3.59;72.68;97344.38;1789506;80;20972;-81
2021/11/11 02:42:54;;;;;;;13.00;9.33;;;;;;;3.63;72.83;97348.35;1758472;81;20999;-81
2021/11/11 02:45:24;;;;;;;10.78;7.50;;;;;;;3.68;72.83;97350.10;1775778;81;20972;-81
2021/11/11 02:47:51;;;;;;;11.78;7.97;;;;;;;3.75;72.69;97344.05;1758472;82;21027;-81
2021/11/11 02:50:17;;;;;;;14.80;10.05;;;;;;;3.79;73.25;97338.55;1758376;81;21003;-81
2021/11/11 02:52:45;;;;;;;12.55;8.63;;;;;;;3.86;73.13;97332.47;1774944;81;21027;-81
2021/11/11 02:55:12;;;;;;;11.78;7.90;;;;;;;3.92;73.13;97326.88;1763621;81;20967;-81
2021/11/11 02:57:39;;;;;;;10.30;8.38;;;;;;;3.95;73.09;97325.81;1763439;81;21365;-82
2021/11/11 03:00:13;;;;;;;12.40;9.45;;;;;;;3.99;73.07;97320.78;1765956;81;20951;-81
2021/11/11 03:02:40;;;;;;;13.22;9.00;;;;;;;4.01;73.02;97321.02;1776185;81;21387;-81
2021/11/11 03:05:08;;;;;;;12.35;8.50;;;;;;;4.02;72.89;97330.36;1750801;81;20962;-81
2021/11/11 03:07:33;;;;;;;14.38;9.55;;;;;;;4.03;73.04;97330.70;1776924;81;21004;-82
2021/11/11 03:09:59;;;;;;;10.98;7.70;;;;;;;4.02;73.38;97328.26;1776890;81;21001;-81
2021/11/11 03:12:25;;;;;;;11.90;8.80;;;;;;;4.05;73.30;97332.69;1761289;81;20993;-81
2021/11/11 03:14:52;;;;;;;14.43;9.28;;;;;;;4.09;73.28;97327.69;1776918;81;21009;-81
2021/11/11 03:17:18;;;;;;;13.08;10.23;;;;;;;4.12;73.28;97322.77;1750633;81;21025;-81
2021/11/11 03:19:44;;;;;;;13.88;9.63;;;;;;;4.11;73.53;97312.13;1776770;81;21036;-81
2021/11/11 03:22:17;;;;;;;14.00;9.93;;;;;;;4.09;73.41;97309.68;1750097;81;21054;-81
2021/11/11 03:24:42;;;;;;;15.32;11.35;;;;;;;4.09;73.71;97307.11;1772962;81;20951;-82
2021/11/11 03:27:09;;;;;;;17.67;11.65;;;;;;;4.05;73.81;97305.69;1773186;81;21082;-81
2021/11/11 03:29:35;;;;;;;10.72;7.85;;;;;;;4.03;73.77;97311.42;1756004;82;21417;-81
2021/11/11 03:32:01;;;;;;;15.30;9.98;;;;;;;4.03;73.81;97302.89;1771141;81;21018;-81
2021/11/11 03:34:27;;;;;;;11.48;7.95;;;;;;;4.01;73.76;97306.05;1732365;82;21023;-81
2021/11/11 03:36:54;;;;;;;12.23;8.40;;;;;;;4.03;73.73;97317.84;1755882;82;20925;-81
2021/11/11 03:39:21;;;;;;;12.65;7.95;;;;;;;4.06;73.66;97318.89;1755973;82;20960;-82
2021/11/11 03:41:47;;;;;;;13.20;8.80;;;;;;;4.04;73.56;97323.34;1771049;81;21010;-81
2021/11/11 03:44:15;;;;;;;11.80;8.78;;;;;;;4.03;73.47;97319.13;1755971;82;20936;-81
2021/11/11 03:46:40;;;;;;;11.75;8.80;;;;;;;4.00;73.33;97321.13;1755839;82;21063;-81
2021/11/11 03:49:07;;;;;;;14.13;9.55;;;;;;;3.93;73.25;97320.80;1770419;81;20953;-81
2021/11/11 03:51:34;;;;;;;14.83;10.78;;;;;;;3.89;73.33;97321.47;1756790;81;21083;-81
2021/11/11 03:53:59;;;;;;;18.82;13.58;;;;;;;3.84;73.35;97323.59;1756807;81;21090;-81
2021/11/11 03:56:25;;;;;;;16.55;11.00;;;;;;;3.80;73.47;97326.05;1756769;81;21299;-81
2021/11/11 03:58:51;;;;;;;15.10;9.95;;;;;;;3.77;73.48;97325.00;1768860;81;20972;-82
2021/11/11 04:01:16;;;;;;;13.60;9.05;;;;;;;3.76;73.45;97325.94;1776875;81;21016;-81
2021/11/11 04:03:42;;;;;;;9.93;7.55;;;;;;;3.76;73.51;97318.70;1774731;80;21018;-81
2021/11/11 04:06:08;;;;;;;10.38;7.40;;;;;;;3.75;73.49;97314.48;1773305;81;21037;-82
2021/11/11 04:08:34;;;;;;;10.75;8.68;;;;;;;3.74;73.65;97316.68;1742998;81;20965;-82
2021/11/11 04:11:02;;;;;;;10.63;8.43;;;;;;;3.72;73.84;97319.84;1772855;81;21074;-81
2021/11/11 04:13:28;;;;;;;9.48;7.85;;;;;;;3.68;73.81;97314.59;1769434;81;21402;-81
2021/11/11 04:15:56;;;;;;;10.93;8.03;;;;;;;3.64;73.77;97311.44;1749878;82;21103;-81
2021/11/11 04:18:21;;;;;;;8.35;7.35;;;;;;;3.58;73.75;97318.34;1749624;82;21345;-81
2021/11/11 04:20:47;;;;;;;8.78;6.08;;;;;;;3.53;73.74;97312.23;1761806;81;21102;-81
2021/11/11 04:23:14;;;;;;;8.43;5.87;;;;;;;3.51;73.80;97310.25;1755057;82;20978;-81
2021/11/11 04:25:52;;;;;;;7.45;6.47;;;;;;;3.51;73.83;97315.86;1758042;82;21042;-81
2021/11/11 04:28:12;;;;;;;11.35;7.60;;;;;;;3.51;73.83;97316.67;1729905;83;20991;-82
2021/11/11 04:30:35;;;;;;;8.43;5.97;;;;;;;3.53;73.83;97315.27;1795851;79;20976;-81
2021/11/11 04:33:03;;;;;;;9.68;6.62;;;;;;;3.50;73.97;97314.22;1794285;80;21287;-81
2021/11/11 04:35:29;;;;;;;9.38;6.80;;;;;;;3.49;73.99;97304.88;1752981;81;20924;-81
2021/11/11 04:38:14;;;;;;;8.68;6.35;;;;;;;3.46;74.18;97302.08;1751501;82;20960;-82
2021/11/11 04:46:16;;;;;;;7.30;5.35;;;;;;;3.36;74.72;97295.16;1738214;81;20995;-81
2021/11/11 04:51:30;;;;;;;9.48;7.55;;;;;;;3.34;74.72;97288.03;1788579;80;21285;-81
2021/11/11 05:04:23;;;;;;;9.58;6.37;;;;;;;3.44;74.68;97294.95;1740068;81;21054;-81
2021/11/11 05:06:51;;;;;;;9.03;7.00;;;;;;;3.43;74.65;97297.17;1730501;83;21051;-81
2021/11/11 05:09:17;;;;;;;7.67;6.30;;;;;;;3.44;74.55;97296.70;1733227;81;21079;-81
2021/11/11 05:11:44;;;;;;;7.17;5.65;;;;;;;3.42;74.50;97295.54;1765644;81;20998;-81
2021/11/11 05:14:10;;;;;;;6.87;5.62;;;;;;;3.43;74.47;97290.75;1766709;80;20992;-81
2021/11/11 05:16:36;;;;;;;7.62;6.45;;;;;;;3.45;74.40;97300.44;1751718;81;21395;-82
2021/11/11 05:19:02;;;;;;;9.48;7.15;;;;;;;3.45;74.31;97290.16;1766874;80;20942;-81
2021/11/11 05:21:27;;;;;;;12.37;8.03;;;;;;;3.44;74.26;97292.38;1766772;80;20958;-82
2021/11/11 05:23:54;;;;;;;9.65;7.12;;;;;;;3.43;74.23;97286.89;1759531;81;20958;-81
2021/11/11 05:26:20;;;;;;;7.85;5.87;;;;;;;3.42;74.35;97282.69;1745501;82;21056;-81
2021/11/11 05:28:46;;;;;;;8.98;6.53;;;;;;;3.40;74.55;97282.43;1752944;81;20935;-81
2021/11/11 05:31:14;;;;;;;9.53;6.80;;;;;;;3.36;74.71;97278.00;1737140;83;20980;-80
2021/11/11 05:33:40;;;;;;;7.55;6.22;;;;;;;3.31;74.71;97271.11;1766458;81;21054;-80
2021/11/11 05:36:05;;;;;;;7.53;5.50;;;;;;;3.29;74.75;97274.27;1733288;83;21269;-79
2021/11/11 05:38:31;;;;;;;6.67;5.20;;;;;;;3.28;74.91;97270.06;1758156;82;21433;-80
2021/11/11 05:40:57;;;;;;;6.70;4.97;;;;;;;3.28;74.87;97275.20;1729586;83;20963;-80
2021/11/11 05:43:22;;;;;;;8.28;5.55;;;;;;;3.30;75.15;97271.58;1734991;83;21093;-80
2021/11/11 05:45:48;;;;;;;6.83;5.33;;;;;;;3.35;75.14;97267.84;1735234;83;21043;-79
2021/11/11 05:48:14;;;;;;;8.03;6.22;;;;;;;3.41;75.08;97267.36;1735159;83;21078;-80
2021/11/11 05:50:40;;;;;;;4.70;4.00;;;;;;;3.44;75.13;97271.83;1735269;83;21040;-80
2021/11/11 05:53:06;;;;;;;7.87;5.47;;;;;;;3.50;75.92;97284.20;1735157;83;21094;-79
2021/11/11 05:55:31;;;;;;;6.42;4.75;;;;;;;3.50;75.79;97284.20;1735217;83;21066;-79
2021/11/11 05:57:57;;;;;;;7.35;5.83;;;;;;;3.50;75.84;97279.06;1735290;83;21436;-79
2021/11/11 06:00:23;;;;;;;7.28;5.12;;;;;;;3.47;75.92;97274.16;1747124;82;21012;-79
2021/11/11 06:02:49;;;;;;;8.18;5.22;;;;;;;3.48;75.62;97273.23;1748202;82;20985;-80
2021/11/11 06:05:15;;;;;;;5.28;4.25;;;;;;;3.49;75.46;97274.86;1777145;80;21091;-79
2021/11/11 06:07:42;;;;;;;5.37;4.25;;;;;;;3.53;75.56;97280.58;1778773;81;21974;-80
2021/11/11 06:10:09;;;;;;;7.40;4.95;;;;;;;3.57;75.51;97279.41;1778797;80;20983;-79
2021/11/11 06:12:34;;;;;;;6.85;6.15;;;;;;;3.55;75.35;97284.66;1778449;81;20936;-80
2021/11/11 06:15:00;;;;;;;6.78;4.72;;;;;;;3.55;75.54;97288.52;1766380;81;21317;-80
2021/11/11 06:17:26;;;;;;;7.28;5.40;;;;;;;3.55;75.57;97291.55;1780901;80;20957;-80
2021/11/11 06:19:52;;;;;;;7.03;5.37;;;;;;;3.55;75.39;97283.38;1766825;81;20918;-79
2021/11/11 06:22:20;;;;;;;6.78;5.40;;;;;;;3.55;75.29;97276.95;1775810;80;21378;-79
2021/11/11 06:24:46;;;;;;;6.12;5.33;;;;;;;3.56;75.44;97279.05;1745516;82;21058;-79
2021/11/11 06:27:12;;;;;;;6.92;5.20;;;;;;;3.58;75.50;97283.17;1776208;81;20995;-80
2021/11/11 06:29:38;;;;;;;6.05;4.65;;;;;;;3.63;75.66;97278.96;1770567;80;20980;-83
2021/11/11 06:32:04;;;;;;;5.58;4.53;;;;;;;3.66;75.53;97281.76;1784075;79;21435;-82
2021/11/11 06:34:30;;;;;;;6.92;4.75;;;;;;;3.68;75.49;97287.13;1762230;80;20981;-83
2021/11/11 06:36:55;;;;;;;7.58;5.05;;;;;;;3.71;75.38;97283.50;1754557;80;20930;-81
2021/11/11 06:39:22;;;;;;;7.42;5.28;;;;;;;3.72;75.44;97273.10;1793924;80;21336;-82
2021/11/11 06:41:48;;;;;;;9.13;5.30;;;;;;;3.75;75.50;97276.75;1779257;80;21026;-83
2021/11/11 06:44:22;;;;;;;6.40;5.22;;;;;;;3.80;75.56;97275.09;1769261;80;21314;-83
2021/11/11 06:46:43;;;;;;;6.70;5.55;;;;;;;3.82;75.50;97269.38;1752368;81;21062;-82
2021/11/11 06:49:08;;;;;;;6.50;5.60;;;;;;;3.84;75.57;97263.17;1775259;80;20901;-82
2021/11/11 06:51:34;;;;;;;5.35;4.47;;;;;;;3.86;75.71;97272.05;1739533;81;20952;-82
2021/11/11 06:54:00;;;;;;;6.22;4.55;;;;;;;3.89;75.79;97270.52;1737280;81;20971;-82
2021/11/11 06:56:26;;;;;;;6.03;4.40;;;;;;;3.95;75.74;97271.35;1769304;80;20963;-82
2021/11/11 06:58:51;;;;;;;5.10;4.58;;;;;;;4.03;75.55;97270.74;1770293;80;20963;-83
2021/11/11 07:01:21;;;;;;;6.28;5.45;;;;;;;4.09;75.48;97266.42;1769365;81;20991;-83
2021/11/11 07:03:45;;;;;;;6.42;5.05;;;;;;;4.14;75.47;97260.45;1767381;80;21059;-82
2021/11/11 07:06:10;;;;;;;6.42;5.30;;;;;;;4.15;75.70;97260.32;1762190;81;21023;-83
2021/11/11 07:08:37;;;;;;;7.28;5.33;;;;;;;4.16;75.86;97261.95;1761908;81;21012;-82
2021/11/11 07:11:04;;;;;;;6.70;5.10;;;;;;;4.15;75.85;97258.22;1761950;81;21010;-82
2021/11/11 07:13:30;;;;;;;7.72;6.08;;;;;;;4.13;75.82;97255.77;1761987;81;21019;-82
2021/11/11 07:15:56;;;;;;;5.70;5.10;;;;;;;4.13;75.72;97255.77;1765250;81;21011;-82
2021/11/11 07:18:21;;;;;;;6.47;5.17;;;;;;;4.16;75.58;97261.14;1798322;80;21339;-82
2021/11/11 07:20:49;;;;;;;6.90;5.58;;;;;;;4.21;75.58;97261.11;1798413;80;20957;-82
2021/11/11 07:23:16;;;;;;;7.28;5.70;;;;;;;4.24;75.32;97256.22;1785563;79;21011;-82
2021/11/11 07:25:42;;;;;;;7.00;6.22;;;;;;;4.24;75.48;97257.98;1766910;80;21038;-82
2021/11/11 07:28:08;;;;;;;6.78;5.80;;;;;;;4.26;75.35;97248.38;1771145;80;21445;-82
2021/11/11 07:30:34;;;;;;;6.72;5.90;;;;;;;4.27;75.51;97250.83;1773366;80;21305;-82
2021/11/11 07:32:59;;;;;;;7.28;5.92;;;;;;;4.27;75.46;97249.55;1772704;80;20997;-82
2021/11/11 07:35:25;;;;;;;7.08;5.25;;;;;;;4.28;75.69;97247.78;1788278;80;21043;-82
2021/11/11 07:37:52;;;;;;;7.62;5.35;;;;;;;4.28;75.86;97251.65;1788184;80;21028;-82
2021/11/11 07:40:20;;;;;;;7.92;6.10;;;;;;;4.28;76.00;97253.75;1766880;80;21095;-82
2021/11/11 07:42:46;;;;;;;7.95;5.70;;;;;;;4.31;75.99;97259.94;1766527;80;21373;-82
2021/11/11 07:45:12;;;;;;;6.58;5.47;;;;;;;4.33;75.89;97250.33;1769052;79;21066;-82
2021/11/11 07:47:38;;;;;;;6.95;5.42;;;;;;;4.36;75.95;97251.38;1765369;81;21004;-82
2021/11/11 07:50:06;;;;;;;5.97;4.85;;;;;;;4.38;76.08;97255.11;1797979;80;20993;-82
2021/11/11 07:52:32;;;;;;;17.00;12.10;;;;;;;4.38;76.35;97252.06;1798217;80;21107;-82
2021/11/11 07:54:58;;;;;;;19.95;14.10;;;;;;;4.37;76.12;97265.05;1783361;80;21067;-80
2021/11/11 07:57:27;;;;;;;14.38;9.73;;;;;;;4.34;76.15;97262.26;1767947;80;20965;-80
2021/11/11 07:59:53;;;;;;;23.90;15.80;;;;;;;4.32;76.11;97253.84;1759674;80;21008;-80
2021/11/11 08:02:20;;;;;;;18.05;12.23;;;;;;;4.34;76.06;97248.58;1766750;80;21369;-80
2021/11/11 08:04:46;;;;;;;15.13;10.68;;;;;;;4.36;76.10;97245.41;1766486;80;21050;-80
2021/11/11 08:07:14;;;;;;;13.40;9.73;;;;;;;4.38;76.11;97232.77;1776564;80;21309;-83
2021/11/11 08:09:41;;;;;;;15.98;11.75;;;;;;;4.41;76.14;97229.16;1798054;80;20993;-78
2021/11/11 08:12:07;;;;;;;19.48;13.85;;;;;;;4.44;76.31;97227.62;1797873;80;20956;-80
2021/11/11 08:14:33;;;;;;;12.30;9.33;;;;;;;4.48;76.19;97227.23;1786716;80;21362;-79
2021/11/11 08:16:59;;;;;;;12.73;8.73;;;;;;;4.51;76.03;97227.45;1773408;80;21010;-78
2021/11/11 08:19:24;;;;;;;14.63;8.78;;;;;;;4.50;75.90;97238.70;1766646;80;21002;-77
2021/11/11 08:21:50;;;;;;;13.85;10.65;;;;;;;4.53;75.69;97252.13;1768070;80;20952;-78
2021/11/11 08:24:16;;;;;;;13.28;9.20;;;;;;;4.58;75.57;97256.93;1774077;80;20959;-79
2021/11/11 08:26:42;;;;;;;10.58;8.08;;;;;;;4.64;75.48;97253.85;1771186;79;21043;-78
2021/11/11 08:29:07;;;;;;;11.00;8.15;;;;;;;4.67;75.47;97249.73;1767508;80;20965;-78
2021/11/11 08:31:34;;;;;;;10.05;7.90;;;;;;;4.74;75.37;97249.61;1783776;79;20971;-78
2021/11/11 08:33:59;;;;;;;7.47;6.03;;;;;;;4.80;75.30;97249.57;1775250;80;20948;-77
2021/11/11 08:36:26;;;;;;;8.80;7.22;;;;;;;4.81;75.14;97245.58;1766480;80;21495;-78
2021/11/11 08:38:55;;;;;;;11.12;8.65;;;;;;;4.86;75.23;97247.77;1770387;79;21421;-78
2021/11/11 08:41:21;;;;;;;13.53;9.43;;;;;;;4.91;75.13;97240.51;1767795;80;21083;-78
2021/11/11 08:43:47;;;;;;;12.07;8.25;;;;;;;4.97;75.17;97240.00;1766483;80;21401;-78
2021/11/11 08:46:13;;;;;;;25.10;16.67;;;;;;;5.04;75.09;97241.59;1742432;80;20967;-78
2021/11/11 08:48:39;;;;;;;21.23;15.55;;;;;;;5.13;75.40;97244.70;1766569;80;20964;-78
2021/11/11 08:51:05;;;;;;;14.40;9.70;;;;;;;5.22;75.34;97233.65;1766661;80;20980;-78
2021/11/11 08:53:30;;;;;;;29.12;19.92;;;;;;;5.32;75.62;97220.80;1766582;80;20979;-79
2021/11/11 08:55:57;;;;;;;24.35;15.68;;;;;;;5.45;75.68;97219.30;1778971;80;20988;-77
2021/11/11 08:58:23;;;;;;;28.07;17.65;;;;;;;5.53;75.85;97213.02;1761384;81;21035;-78
2021/11/11 09:00:51;;;;;;;24.20;17.87;;;;;;;5.61;75.66;97206.75;1753791;81;21485;-78
2021/11/11 09:03:18;;;;;;;22.45;14.65;;;;;;;5.70;75.53;97207.27;1766774;80;21046;-78
2021/11/11 09:05:44;;;;;;;19.10;13.40;;;;;;;5.84;75.56;97209.93;1772426;79;21468;-78
2021/11/11 09:08:11;;;;;;;18.37;12.73;;;;;;;5.93;75.41;97204.84;1737047;81;21056;-78
2021/11/11 09:10:41;;;;;;;33.53;23.77;;;;;;;6.03;75.48;97207.45;1772015;81;21054;-77
2021/11/11 09:13:07;;;;;;;21.65;15.60;;;;;;;6.11;75.02;97199.03;1771819;79;20992;-77
2021/11/11 09:15:33;;;;;;;26.20;17.85;;;;;;;6.17;75.06;97196.71;1770084;79;21389;-77
2021/11/11 09:18:00;;;;;;;28.30;19.57;;;;;;;6.23;74.99;97194.09;1765488;80;21049;-78
2021/11/11 09:20:26;;;;;;;30.68;21.85;;;;;;;6.31;75.06;97200.67;1762630;79;21305;-77
2021/11/11 09:22:53;;;;;;;18.95;14.23;;;;;;;6.38;74.59;97205.66;1764666;80;20975;-78
2021/11/11 09:25:19;;;;;;;33.40;25.48;;;;;;;6.46;74.70;97195.45;1761836;79;21280;-77
2021/11/11 09:27:45;;;;;;;25.35;19.25;;;;;;;6.57;74.61;97198.38;1759860;79;20982;-77
2021/11/11 09:30:17;;;;;;;38.42;26.73;;;;;;;6.69;74.48;97195.19;1763393;79;20992;-77
2021/11/11 09:32:43;;;;;;;38.95;24.87;;;;;;;6.78;74.17;97181.42;1768372;79;20978;-78
2021/11/11 09:35:09;;;;;;;33.63;24.02;;;;;;;6.84;74.19;97175.25;1772791;79;21037;-77
2021/11/11 09:37:36;;;;;;;41.58;28.32;;;;;;;6.89;73.59;97176.92;1738393;81;21389;-77
2021/11/11 09:40:04;;;;;;;44.70;30.15;;;;;;;6.94;73.76;97170.04;1763747;81;20990;-79
2021/11/11 09:42:30;;;;;;;37.75;27.15;;;;;;;7.02;73.97;97172.76;1762943;79;21003;-78
2021/11/11 09:44:56;;;;;;;43.60;27.85;;;;;;;7.11;74.32;97174.96;1759607;80;20985;-77
2021/11/11 09:47:22;;;;;;;36.20;25.85;;;;;;;7.20;74.37;97176.23;1767596;79;21005;-77
2021/11/11 09:49:48;;;;;;;38.90;26.93;;;;;;;7.26;73.27;97178.72;1768333;80;21019;-78
2021/11/11 09:52:14;;;;;;;37.45;28.20;;;;;;;7.33;73.16;97170.76;1755675;81;21039;-77
2021/11/11 09:59:54;;;;;;;47.35;32.88;;;;;;;7.50;72.88;97171.30;1762705;80;21073;-77
2021/11/11 10:02:20;;;;;;;46.92;33.08;;;;;;;7.54;72.78;97171.81;1749263;81;20966;-77
2021/11/11 10:04:46;;;;;;;43.58;31.42;;;;;;;7.59;72.50;97168.31;1760198;80;21408;-78
2021/11/11 10:07:12;;;;;;;46.42;33.20;;;;;;;7.66;72.29;97166.80;1737794;81;21027;-77
2021/11/11 10:09:44;;;;;;;45.08;32.83;;;;;;;7.65;71.94;97163.06;1750149;81;20962;-78
2021/11/11 10:12:17;;;;;;;45.38;32.08;;;;;;;7.68;71.95;97170.53;1750520;81;20976;-77
2021/11/11 10:14:46;;;;;;;46.48;33.75;;;;;;;7.76;71.99;97169.31;1741553;81;21379;-77
2021/11/11 10:17:11;;;;;;;46.45;32.48;;;;;;;7.82;71.54;97173.92;1738637;80;21027;-78
2021/11/11 10:19:40;;;;;;;44.85;32.38;;;;;;;7.86;72.01;97182.20;1755472;80;20993;-78
2021/11/11 10:22:12;;;;;;;39.55;30.45;;;;;;;7.87;71.49;97182.53;1755253;81;21104;-77
2021/11/11 10:24:53;;;;;;;39.50;27.60;;;;;;;7.91;71.54;97187.27;1757526;80;20971;-77
2021/11/11 10:27:28;;;;;;;39.42;27.10;;;;;;;7.95;70.66;97189.89;1745872;81;21337;-77
2021/11/11 10:30:02;;;;;;;43.00;31.85;;;;;;;7.97;70.88;97198.35;1757727;81;21390;-78
2021/11/11 10:32:37;;;;;;;35.88;27.30;;;;;;;8.04;71.17;97197.28;1743040;81;21035;-77
2021/11/11 10:35:15;;;;;;;44.58;30.75;;;;;;;8.09;70.58;97189.40;1749721;81;21117;-77
2021/11/11 10:37:51;;;;;;;40.03;30.25;;;;;;;8.10;70.75;97179.38;1742771;81;21098;-78
2021/11/11 10:40:33;;;;;;;43.20;30.68;;;;;;;8.14;70.71;97177.34;1756888;80;21427;-78
2021/11/11 10:43:02;;;;;;;37.33;24.90;;;;;;;8.15;71.03;97180.25;1755994;80;20996;-78
2021/11/11 10:45:31;;;;;;;40.88;29.45;;;;;;;8.17;70.88;97175.74;1762221;80;20977;-77
2021/11/11 10:48:02;;;;;;;39.95;27.02;;;;;;;8.23;71.27;97179.03;1755205;80;21005;-77
2021/11/11 10:50:35;;;;;;;38.28;27.42;;;;;;;8.28;71.01;97181.16;1738932;80;21032;-77
2021/11/11 10:53:09;;;;;;;40.70;30.37;;;;;;;8.34;70.71;97186.61;1760420;81;21484;-77
2021/11/11 10:55:40;;;;;;;41.35;30.25;;;;;;;8.35;70.30;97183.06;1764842;81;21021;-77
2021/11/11 10:58:14;;;;;;;32.45;24.55;;;;;;;8.43;70.57;97183.60;1764968;81;21372;-78
2021/11/11 11:00:56;;;;;;;37.55;27.67;;;;;;;8.49;70.08;97181.73;1764609;81;21065;-78
2021/11/11 11:03:32;;;;;;;43.10;29.20;;;;;;;8.55;70.00;97172.54;1765307;81;20993;-78
2021/11/11 11:06:15;;;;;;;48.95;33.83;;;;;;;8.60;70.02;97170.30;1758800;81;20974;-77
2021/11/11 11:08:50;;;;;;;33.28;25.27;;;;;;;8.67;70.23;97175.23;1776245;80;20991;-77
2021/11/11 11:11:21;;;;;;;39.30;28.02;;;;;;;8.70;69.12;97176.22;1765131;81;21041;-77
2021/11/11 11:14:00;;;;;;;37.90;28.62;;;;;;;8.72;69.42;97176.88;1742737;81;21045;-77
2021/11/11 11:16:29;;;;;;;34.20;27.45;;;;;;;8.80;69.39;97182.14;1754232;80;21006;-78
2021/11/11 11:18:58;;;;;;;34.60;25.02;;;;;;;8.86;69.28;97182.01;1767556;81;21032;-77
2021/11/11 11:21:30;;;;;;;31.87;24.57;;;;;;;8.89;69.51;97189.48;1750520;81;21038;-77
2021/11/11 11:23:59;;;;;;;33.90;25.35;;;;;;;8.91;69.35;97200.02;1775637;81;21078;-78
2021/11/11 11:26:31;;;;;;;36.00;26.25;;;;;;;8.93;69.02;97195.50;1776152;81;20957;-77
2021/11/11 11:32:07;;;;;;;35.13;24.80;;;;;;;9.04;68.93;97189.26;1776079;81;21021;-77
2021/11/11 11:34:40;;;;;;;33.08;23.47;;;;;;;9.07;69.21;97195.91;1775659;81;20982;-77
2021/11/11 11:37:15;;;;;;;36.68;25.40;;;;;;;9.07;68.71;97197.21;1751206;81;21058;-77
2021/11/11 11:39:57;;;;;;;36.75;26.85;;;;;;;9.06;68.55;97196.88;1745090;81;20981;-78
2021/11/11 11:42:26;;;;;;;31.70;22.82;;;;;;;9.11;68.83;97194.64;1744533;81;21061;-77
2021/11/11 11:45:00;;;;;;;36.45;25.35;;;;;;;9.21;68.45;97188.87;1745880;81;21018;-77
2021/11/11 11:47:43;;;;;;;32.38;23.83;;;;;;;9.23;68.63;97196.83;1765637;81;20981;-77
2021/11/11 11:50:32;;;;;;;31.37;23.45;;;;;;;9.24;68.24;97195.86;1775866;81;21005;-77
2021/11/11 11:53:03;;;;;;;37.13;25.85;;;;;;;9.23;68.09;97200.72;1758720;81;21015;-78
2021/11/11 11:55:34;;;;;;;33.25;22.85;;;;;;;9.24;68.33;97198.94;1745758;81;21409;-77
2021/11/11 12:40:01;;;;;;;24.77;18.55;;;;;;;9.55;68.45;97175.44;1776545;81;21018;-77
2021/11/11 12:42:39;;;;;;;28.52;19.25;;;;;;;9.56;68.63;97175.77;1776510;81;21046;-77